Time;durP1;ratioP1;P1;durP2;ratioP2;P2;SDS_P1;SDS_P2;PMS_P1;PMS_P2;Temp;Humidity;BMP_temperature;BMP_pressure;BME280_temperature;BME280_humidity;BME280_pressure;Samples;Min_cycle;Max_cycle;Signal;HPM_P1;HPM_P2
2024/01/07 00:00:13;;;;;;;6.82;3.17;;;;;;;13.70;62.92;98119.59;4786522;30;20047;-93
2024/01/07 00:02:38;;;;;;;5.28;3.15;;;;;;;13.69;63.23;98123.38;4776291;29;20043;-94
2024/01/07 00:05:04;;;;;;;7.68;3.20;;;;;;;13.62;63.22;98120.38;4805917;29;20038;-95
2024/01/07 00:07:30;;;;;;;9.60;3.25;;;;;;;13.60;63.42;98117.97;4816929;29;20077;-95
2024/01/07 00:09:55;;;;;;;8.18;3.55;;;;;;;13.59;63.79;98107.47;4825014;29;20139;-94
2024/01/07 00:12:22;;;;;;;3.88;2.90;;;;;;;13.62;63.76;98110.34;4842422;29;20037;-96
2024/01/07 00:14:48;;;;;;;9.63;4.18;;;;;;;13.66;63.63;98110.50;4814659;29;20421;-95
2024/01/07 00:17:16;;;;;;;8.98;3.50;;;;;;;13.75;63.69;98125.59;4829407;29;20090;-94
2024/01/07 00:19:43;;;;;;;6.70;3.35;;;;;;;13.73;63.71;98130.53;4829393;29;20034;-94
2024/01/07 00:22:12;;;;;;;9.32;4.32;;;;;;;13.64;63.93;98091.09;4831278;29;20067;-92
2024/01/07 00:24:37;;;;;;;6.90;3.50;;;;;;;13.56;63.92;98073.75;4814988;29;20042;-93
2024/01/07 00:27:03;;;;;;;7.40;3.58;;;;;;;13.67;64.44;98082.34;4834212;29;20133;-94
2024/01/07 00:29:29;;;;;;;6.03;3.50;;;;;;;13.59;64.55;98077.72;4847485;29;20119;-94
2024/01/07 00:31:54;;;;;;;5.75;3.45;;;;;;;13.63;64.42;98062.44;4830835;29;20048;-93
2024/01/07 00:34:26;;;;;;;7.15;3.70;;;;;;;13.56;64.35;98049.41;4835604;29;20081;-93
2024/01/07 00:36:53;;;;;;;7.25;3.80;;;;;;;13.52;64.53;98049.25;4834706;29;20115;-93
2024/01/07 00:39:19;;;;;;;7.15;3.67;;;;;;;13.57;64.40;98033.97;4847732;29;20408;-93
2024/01/07 00:41:44;;;;;;;9.10;3.78;;;;;;;13.50;64.58;98031.78;4834616;29;20040;-94
2024/01/07 00:44:12;;;;;;;6.15;3.72;;;;;;;13.52;64.61;98032.25;4850769;29;20492;-94
2024/01/07 00:46:38;;;;;;;7.70;3.53;;;;;;;13.58;64.56;98027.47;4849787;29;20045;-94
2024/01/07 00:49:04;;;;;;;9.50;3.63;;;;;;;13.69;64.27;98043.03;4850499;29;20041;-94
2024/01/07 00:51:29;;;;;;;5.78;3.70;;;;;;;13.61;64.96;98037.63;4850610;29;20045;-95
2024/01/07 00:53:55;;;;;;;7.03;3.63;;;;;;;13.59;64.69;98032.53;4836142;29;20033;-94
2024/01/07 00:56:21;;;;;;;7.80;3.92;;;;;;;13.59;64.52;98024.44;4850427;29;20056;-95
2024/01/07 00:58:47;;;;;;;4.97;3.75;;;;;;;13.64;64.56;98021.56;4835070;29;20046;-92
2024/01/07 01:01:13;;;;;;;10.80;3.75;;;;;;;13.72;63.97;97995.63;4849810;29;20056;-92
2024/01/07 01:03:38;;;;;;;5.57;3.42;;;;;;;13.77;63.86;98006.25;4834289;29;20411;-93
2024/01/07 01:06:05;;;;;;;6.13;3.70;;;;;;;13.75;63.64;97981.44;4833755;29;20047;-92
2024/01/07 01:08:31;;;;;;;6.55;3.67;;;;;;;13.81;63.19;97979.34;4848614;29;20128;-93
2024/01/07 01:10:56;;;;;;;4.95;3.60;;;;;;;13.81;63.05;97969.31;4833550;29;20048;-92
2024/01/07 01:13:22;;;;;;;6.28;3.75;;;;;;;13.92;62.71;97983.28;4833287;29;20072;-92
2024/01/07 01:15:48;;;;;;;6.97;3.40;;;;;;;13.80;62.80;97953.41;4834515;29;20043;-92
2024/01/07 01:18:13;;;;;;;5.05;3.33;;;;;;;13.95;62.64;97955.59;4832736;29;20051;-92
2024/01/07 01:20:39;;;;;;;7.15;3.60;;;;;;;13.83;62.97;97928.41;4832815;29;20076;-91
2024/01/07 01:23:06;;;;;;;5.18;3.28;;;;;;;13.83;62.15;97940.03;4833657;29;20049;-96
2024/01/07 01:25:32;;;;;;;6.07;3.35;;;;;;;13.91;62.45;97965.47;4848505;29;20128;-94
2024/01/07 01:27:58;;;;;;;4.13;3.22;;;;;;;13.83;62.23;97950.84;4833719;29;20472;-95
2024/01/07 01:30:23;;;;;;;4.90;2.75;;;;;;;13.85;61.86;97966.75;4854785;29;20049;-93
2024/01/07 01:32:52;;;;;;;5.95;3.63;;;;;;;13.98;61.97;97973.06;4839123;29;20045;-94
2024/01/07 01:35:18;;;;;;;5.43;2.92;;;;;;;13.93;61.87;97982.19;4840659;29;20041;-92
2024/01/07 01:37:44;;;;;;;5.50;3.28;;;;;;;13.92;61.87;97994.09;4837277;29;20127;-91
2024/01/07 01:40:10;;;;;;;3.85;2.28;;;;;;;13.99;60.60;97993.63;4836937;29;20136;-92
2024/01/07 01:42:36;;;;;;;5.15;2.30;;;;;;;13.90;60.37;97971.97;4837221;29;20048;-93
2024/01/07 01:45:02;;;;;;;4.88;2.20;;;;;;;13.98;60.59;97987.38;4837275;29;20481;-92
2024/01/07 01:47:29;;;;;;;8.43;2.50;;;;;;;14.04;60.37;97985.31;4836876;29;20048;-92
2024/01/07 01:49:56;;;;;;;5.30;2.03;;;;;;;13.89;60.40;97944.13;4852022;29;20044;-93
2024/01/07 01:52:22;;;;;;;3.92;2.00;;;;;;;13.86;60.40;97933.97;4851968;29;20041;-93
2024/01/07 01:54:48;;;;;;;2.97;2.05;;;;;;;13.97;60.44;97961.47;4836872;29;20041;-93
2024/01/07 01:57:16;;;;;;;6.45;2.10;;;;;;;13.91;60.24;97933.78;4836079;29;20558;-93
2024/01/07 01:59:44;;;;;;;3.90;2.13;;;;;;;13.80;60.61;97919.06;4836700;29;20121;-91
2024/01/07 02:02:10;;;;;;;3.20;1.80;;;;;;;13.79;60.78;97920.16;4852033;29;20117;-92
2024/01/07 02:04:35;;;;;;;4.63;2.00;;;;;;;13.74;60.17;97918.44;4836896;29;20405;-92
2024/01/07 02:07:02;;;;;;;3.00;1.70;;;;;;;13.74;59.63;97909.53;4836475;29;20041;-93
2024/01/07 02:09:27;;;;;;;4.88;1.80;;;;;;;13.88;59.33;97914.69;4850434;29;20145;-94
2024/01/07 02:12:03;;;;;;;2.47;1.50;;;;;;;13.95;59.40;97915.78;4830050;29;20049;-92
2024/01/07 02:14:30;;;;;;;2.13;1.27;;;;;;;13.94;59.62;97897.16;4833978;29;20044;-92
2024/01/07 02:16:56;;;;;;;2.13;1.00;;;;;;;13.80;59.59;97873.06;4819211;29;20053;-94
2024/01/07 02:19:24;;;;;;;1.77;0.80;;;;;;;13.73;59.96;97865.44;4801502;29;20038;-93
2024/01/07 02:21:55;;;;;;;1.92;1.00;;;;;;;13.57;60.33;97858.97;4815422;29;20046;-92
2024/01/07 02:24:22;;;;;;;1.60;0.80;;;;;;;13.66;59.85;97867.09;4801158;29;20042;-94
2024/01/07 02:26:48;;;;;;;0.93;0.68;;;;;;;13.59;59.55;97869.50;4815823;29;20042;-93
2024/01/07 02:29:13;;;;;;;2.88;0.68;;;;;;;13.42;60.11;97846.81;4800246;29;20040;-93
2024/01/07 02:31:39;;;;;;;0.90;0.60;;;;;;;13.41;60.34;97839.84;4830355;29;20042;-93
2024/01/07 02:34:04;;;;;;;3.78;0.88;;;;;;;13.32;60.42;97828.25;4799996;29;20109;-92
2024/01/07 02:36:30;;;;;;;0.77;0.60;;;;;;;13.29;60.50;97821.56;4799453;29;20443;-93
2024/01/07 02:38:56;;;;;;;1.38;0.70;;;;;;;13.37;60.77;97857.81;4799542;29;20146;-93
2024/01/07 02:41:25;;;;;;;3.05;0.68;;;;;;;13.24;60.68;97821.75;4799913;29;20045;-93
2024/01/07 02:43:51;;;;;;;0.75;0.70;;;;;;;13.28;60.45;97801.06;4818199;29;20050;-95
2024/01/07 02:46:19;;;;;;;1.52;0.70;;;;;;;13.33;60.16;97810.91;4799450;29;20041;-95
2024/01/07 02:48:46;;;;;;;2.45;0.93;;;;;;;13.33;60.58;97825.22;4800833;29;20183;-93
2024/01/07 02:51:14;;;;;;;2.05;1.00;;;;;;;13.30;60.36;97809.66;4800227;29;20049;-96
2024/01/07 02:53:41;;;;;;;1.60;0.60;;;;;;;13.39;60.61;97809.63;4830238;29;20136;-95
2024/01/07 02:56:08;;;;;;;2.28;0.70;;;;;;;13.45;60.36;97812.94;4799831;29;20046;-96
2024/01/07 02:58:34;;;;;;;0.90;0.70;;;;;;;13.32;60.96;97798.50;4800618;29;20065;-95
2024/01/07 03:01:00;;;;;;;1.35;0.65;;;;;;;13.25;61.03;97799.00;4798446;29;20068;-93
2024/01/07 03:03:26;;;;;;;0.75;0.60;;;;;;;13.37;61.29;97828.06;4798905;29;20064;-93
2024/01/07 03:05:52;;;;;;;0.65;0.60;;;;;;;13.23;61.28;97816.66;4798808;29;20038;-94
2024/01/07 03:08:20;;;;;;;0.80;0.60;;;;;;;13.28;61.17;97838.91;4813739;29;20133;-93
2024/01/07 03:10:46;;;;;;;0.82;0.63;;;;;;;13.21;61.88;97852.09;4814184;29;20072;-94
2024/01/07 03:13:12;;;;;;;5.20;0.75;;;;;;;13.04;62.11;97833.25;4829133;29;20121;-94
2024/01/07 03:15:37;;;;;;;2.05;0.82;;;;;;;13.12;62.31;97857.53;4814599;29;20080;-93
2024/01/07 03:18:05;;;;;;;4.60;1.80;;;;;;;13.12;62.35;97848.66;4829364;29;20532;-93
2024/01/07 03:20:30;;;;;;;3.03;1.00;;;;;;;13.13;62.13;97837.50;4813770;29;20125;-93
2024/01/07 03:22:56;;;;;;;0.50;0.50;;;;;;;13.18;62.16;97831.16;4799494;29;20046;-94
2024/01/07 03:25:21;;;;;;;0.63;0.50;;;;;;;13.21;62.30;97819.66;4828493;29;20073;-94
2024/01/07 03:27:47;;;;;;;4.60;0.85;;;;;;;13.29;63.30;97824.28;4813190;29;20501;-93
2024/01/07 03:30:13;;;;;;;3.85;0.98;;;;;;;13.21;64.25;97765.63;4813074;29;20037;-93
2024/01/07 03:32:38;;;;;;;3.10;0.95;;;;;;;13.34;64.91;97710.59;4845099;29;20040;-93
2024/01/07 03:35:08;;;;;;;2.20;0.70;;;;;;;13.38;65.22;97775.56;4850239;29;20476;-93
2024/01/07 03:37:37;;;;;;;1.05;0.70;;;;;;;13.30;65.72;97792.63;4826857;29;20196;-93
2024/01/07 03:40:11;;;;;;;2.33;0.85;;;;;;;13.24;66.59;97774.97;4864938;29;20045;-94
2024/01/07 03:42:40;;;;;;;1.05;0.70;;;;;;;13.25;66.88;97792.78;4834193;29;20047;-93
2024/01/07 03:45:07;;;;;;;2.53;0.80;;;;;;;13.07;67.13;97759.63;4849288;29;20085;-94
2024/01/07 03:47:33;;;;;;;2.55;1.00;;;;;;;13.21;67.24;97781.84;4833913;29;20124;-93
2024/01/07 03:50:02;;;;;;;2.05;0.80;;;;;;;13.08;67.22;97766.66;4848729;29;20101;-93
2024/01/07 03:52:29;;;;;;;0.80;0.60;;;;;;;13.03;67.67;97756.00;4864576;29;20072;-92
2024/01/07 03:54:56;;;;;;;0.85;0.50;;;;;;;12.98;67.32;97765.09;4833719;29;20051;-94
2024/01/07 03:57:22;;;;;;;1.05;0.63;;;;;;;12.73;68.29;97745.94;4849288;29;20056;-94
2024/01/07 03:59:47;;;;;;;2.35;0.70;;;;;;;12.70;68.98;97761.97;4833817;29;20037;-93
2024/01/07 04:02:16;;;;;;;1.27;0.70;;;;;;;12.54;69.60;97740.13;4834072;29;20128;-92
2024/01/07 04:04:42;;;;;;;1.05;0.60;;;;;;;12.42;70.46;97738.06;4849807;29;20043;-92
2024/01/07 04:07:09;;;;;;;1.05;0.70;;;;;;;12.39;71.27;97724.41;4833830;29;20036;-93
2024/01/07 04:09:35;;;;;;;0.95;0.60;;;;;;;12.21;71.46;97678.59;4849946;29;20385;-93
2024/01/07 04:12:00;;;;;;;0.50;0.50;;;;;;;12.06;71.76;97668.31;4833943;29;20045;-93
2024/01/07 04:14:27;;;;;;;1.17;0.55;;;;;;;12.06;72.38;97690.69;4849803;29;20072;-92
2024/01/07 04:16:53;;;;;;;0.73;0.70;;;;;;;11.91;72.02;97666.88;4834428;29;20404;-92
2024/01/07 04:19:18;;;;;;;0.88;0.70;;;;;;;12.11;71.22;97674.31;4833400;29;20033;-94
2024/01/07 04:21:47;;;;;;;3.08;1.25;;;;;;;12.25;70.73;97703.81;4824821;29;20044;-92
2024/01/07 04:24:14;;;;;;;2.13;1.30;;;;;;;12.25;70.39;97701.13;4849017;29;20072;-92
2024/01/07 04:26:43;;;;;;;4.65;1.50;;;;;;;12.38;69.87;97704.75;4880569;29;20041;-92
2024/01/07 04:29:09;;;;;;;1.92;1.58;;;;;;;12.46;69.25;97681.56;4835192;29;20041;-91
2024/01/07 04:31:36;;;;;;;2.75;1.60;;;;;;;12.63;69.11;97700.38;4834386;29;20041;-93
2024/01/07 04:34:05;;;;;;;3.33;1.50;;;;;;;12.70;69.13;97697.97;4833425;29;20069;-94
2024/01/07 04:36:32;;;;;;;2.25;1.63;;;;;;;12.46;68.84;97681.56;4855268;29;20120;-93
2024/01/07 04:38:59;;;;;;;4.82;1.40;;;;;;;12.54;68.57;97667.22;4852589;29;20037;-93
2024/01/07 04:41:25;;;;;;;2.22;1.50;;;;;;;12.51;68.45;97648.97;4869511;29;20060;-94
2024/01/07 04:43:56;;;;;;;2.25;1.30;;;;;;;12.63;68.47;97664.50;4856623;29;20044;-92
2024/01/07 04:46:23;;;;;;;3.58;1.70;;;;;;;12.70;68.41;97656.66;4839304;29;20049;-92
2024/01/07 04:48:50;;;;;;;2.63;1.73;;;;;;;12.72;68.75;97652.53;4854409;29;20037;-93
2024/01/07 04:51:16;;;;;;;2.70;1.85;;;;;;;12.81;68.75;97657.13;4852557;29;20045;-92
2024/01/07 04:53:49;;;;;;;4.28;1.67;;;;;;;12.78;69.37;97642.34;4837177;29;20051;-93
2024/01/07 04:56:15;;;;;;;3.90;1.90;;;;;;;12.70;70.24;97638.56;4854650;29;20061;-93
2024/01/07 04:58:40;;;;;;;2.45;2.05;;;;;;;12.81;69.95;97640.91;4844882;29;20126;-92
2024/01/07 05:01:06;;;;;;;4.03;1.75;;;;;;;12.80;69.79;97626.59;4826264;29;20045;-92
2024/01/07 05:03:32;;;;;;;2.83;1.80;;;;;;;12.76;69.96;97614.06;4818917;29;20064;-92
2024/01/07 05:05:58;;;;;;;6.63;2.45;;;;;;;12.69;70.41;97609.97;4818768;29;20033;-93
2024/01/07 05:08:26;;;;;;;4.13;1.70;;;;;;;12.73;70.06;97599.31;4834121;29;20141;-93
2024/01/07 05:10:52;;;;;;;3.00;1.80;;;;;;;12.58;70.56;97589.09;4839596;29;20040;-93
2024/01/07 05:13:17;;;;;;;4.10;1.58;;;;;;;12.45;70.70;97570.09;4829036;29;20503;-92
2024/01/07 05:15:46;;;;;;;4.22;1.73;;;;;;;12.49;70.17;97548.63;4830043;29;20089;-93
2024/01/07 05:18:12;;;;;;;5.20;2.10;;;;;;;12.44;70.10;97535.31;4837404;29;20029;-93
2024/01/07 05:20:39;;;;;;;4.90;2.85;;;;;;;12.57;69.86;97565.91;4828297;29;20125;-94
2024/01/07 05:23:05;;;;;;;4.20;1.50;;;;;;;12.42;70.00;97559.16;4824960;29;20068;-94
2024/01/07 05:25:31;;;;;;;3.67;1.65;;;;;;;12.39;69.99;97544.41;4836754;29;20500;-94
2024/01/07 05:27:57;;;;;;;6.50;1.65;;;;;;;12.23;70.23;97536.03;4859676;29;20037;-93
2024/01/07 05:30:23;;;;;;;5.63;1.52;;;;;;;12.18;69.94;97551.63;4818257;29;20037;-92
2024/01/07 05:32:49;;;;;;;2.95;1.40;;;;;;;12.17;70.39;97560.84;4818740;29;20038;-94
2024/01/07 05:35:20;;;;;;;2.42;1.40;;;;;;;12.22;70.75;97584.94;4832942;29;20136;-94
2024/01/07 05:37:46;;;;;;;3.58;1.63;;;;;;;12.08;71.07;97582.47;4819770;29;20120;-94
2024/01/07 05:40:12;;;;;;;3.88;1.38;;;;;;;12.00;70.77;97575.19;4817506;29;20064;-94
2024/01/07 05:42:37;;;;;;;2.72;1.30;;;;;;;12.05;70.55;97575.00;4819097;29;20093;-93
2024/01/07 05:45:04;;;;;;;3.45;1.42;;;;;;;12.04;70.52;97565.34;4818317;29;20065;-94
2024/01/07 05:47:30;;;;;;;3.33;1.27;;;;;;;12.11;69.86;97562.91;4832354;29;20034;-93
2024/01/07 05:49:55;;;;;;;2.92;1.08;;;;;;;12.07;68.66;97551.97;4832922;29;20040;-94
2024/01/07 05:52:22;;;;;;;3.60;1.00;;;;;;;12.18;68.30;97547.03;4818279;29;20076;-93
2024/01/07 05:54:48;;;;;;;2.83;1.33;;;;;;;12.19;68.60;97547.81;4847983;29;20061;-92
2024/01/07 05:57:13;;;;;;;4.60;1.20;;;;;;;12.20;67.90;97549.38;4818226;29;20064;-93
2024/01/07 05:59:43;;;;;;;1.75;0.90;;;;;;;12.34;67.52;97556.16;4818397;29;20041;-94
2024/01/07 06:02:09;;;;;;;1.50;0.95;;;;;;;12.34;67.87;97561.53;4833733;29;20052;-93
2024/01/07 06:04:34;;;;;;;3.47;1.10;;;;;;;12.46;66.94;97565.47;4818315;29;20037;-92
2024/01/07 06:07:00;;;;;;;1.27;1.00;;;;;;;12.54;67.00;97561.94;4817388;29;20041;-93
2024/01/07 06:09:28;;;;;;;2.38;1.00;;;;;;;12.52;67.00;97539.88;4847535;29;20449;-92
2024/01/07 06:11:53;;;;;;;5.30;3.33;;;;;;;12.56;66.54;97542.72;4817989;29;20040;-92
2024/01/07 06:14:19;;;;;;;2.67;1.10;;;;;;;12.50;66.46;97534.78;4817531;29;20484;-92
2024/01/07 06:16:45;;;;;;;2.47;1.50;;;;;;;12.44;66.71;97525.31;4818549;29;20044;-93
2024/01/07 06:19:11;;;;;;;2.90;1.23;;;;;;;12.47;65.70;97538.16;4833586;29;20033;-92
2024/01/07 06:21:37;;;;;;;2.78;1.45;;;;;;;12.39;66.43;97530.91;4818662;29;20037;-93
2024/01/07 06:24:04;;;;;;;2.35;1.40;;;;;;;12.34;65.31;97529.16;4848385;29;20034;-93
2024/01/07 06:26:30;;;;;;;2.75;1.40;;;;;;;12.42;65.05;97546.44;4848595;29;20033;-92
2024/01/07 06:28:56;;;;;;;2.80;1.20;;;;;;;12.38;64.82;97523.13;4832639;29;20042;-93
2024/01/07 06:31:29;;;;;;;1.80;1.30;;;;;;;12.47;64.88;97545.44;4818653;29;20033;-92
2024/01/07 06:33:58;;;;;;;1.98;1.35;;;;;;;12.56;64.46;97546.22;4835437;29;20109;-92
2024/01/07 06:36:29;;;;;;;1.60;1.05;;;;;;;12.33;63.72;97516.78;4820263;29;20037;-93
2024/01/07 06:38:55;;;;;;;3.05;1.70;;;;;;;12.52;63.32;97532.56;4835401;29;20044;-93
2024/01/07 06:41:20;;;;;;;2.55;1.10;;;;;;;12.42;63.14;97503.25;4816997;29;20436;-93
2024/01/07 06:43:49;;;;;;;4.18;1.77;;;;;;;12.42;62.05;97507.88;4818662;29;20034;-93
2024/01/07 06:46:16;;;;;;;3.05;0.82;;;;;;;12.40;60.74;97520.88;4818422;29;20124;-93
2024/01/07 06:48:43;;;;;;;6.00;1.90;;;;;;;12.46;60.45;97530.38;4832026;29;20041;-93
2024/01/07 06:51:09;;;;;;;5.72;2.97;;;;;;;12.28;60.55;97503.47;4848541;29;20041;-93
2024/01/07 06:53:35;;;;;;;9.23;4.70;;;;;;;12.50;59.79;97542.13;4817856;29;20069;-93
2024/01/07 06:56:01;;;;;;;5.70;2.83;;;;;;;12.18;59.96;97513.84;4816591;29;20092;-93
2024/01/07 06:58:32;;;;;;;2.22;1.05;;;;;;;12.31;59.58;97532.53;4833412;29;20049;-93
2024/01/07 07:00:58;;;;;;;9.45;6.05;;;;;;;12.34;58.91;97534.56;4832624;29;20045;-93
2024/01/07 07:03:25;;;;;;;1.83;0.90;;;;;;;12.23;59.44;97524.47;4816694;29;20056;-93
2024/01/07 07:05:53;;;;;;;1.45;0.80;;;;;;;12.24;59.38;97545.75;4817746;29;20048;-93
2024/01/07 07:08:19;;;;;;;1.02;0.73;;;;;;;12.18;59.80;97552.44;4832357;29;20037;-93
2024/01/07 07:10:44;;;;;;;0.80;0.70;;;;;;;12.06;59.42;97538.81;4817668;29;20080;-93
2024/01/07 07:13:12;;;;;;;1.55;0.75;;;;;;;12.18;59.36;97552.44;4817479;29;20497;-93
2024/01/07 07:15:37;;;;;;;2.55;0.85;;;;;;;12.09;60.25;97548.97;4832131;29;20496;-92
2024/01/07 07:18:03;;;;;;;2.75;0.90;;;;;;;11.83;60.46;97552.50;4818161;29;20041;-94
2024/01/07 07:20:29;;;;;;;3.75;0.85;;;;;;;11.78;61.08;97547.28;4831164;29;20124;-91
2024/01/07 07:22:54;;;;;;;1.55;0.60;;;;;;;11.72;60.65;97525.09;4816890;29;20104;-92
2024/01/07 07:25:21;;;;;;;6.68;3.92;;;;;;;11.90;60.33;97531.25;4816189;29;20101;-91
2024/01/07 07:27:47;;;;;;;2.38;0.90;;;;;;;12.02;60.66;97510.91;4845832;29;20583;-91
2024/01/07 07:30:14;;;;;;;4.25;0.80;;;;;;;12.11;59.96;97509.75;4850240;29;20128;-92
2024/01/07 07:32:44;;;;;;;2.28;1.10;;;;;;;12.08;60.27;97480.72;4865589;29;20048;-93
2024/01/07 07:35:09;;;;;;;3.47;1.10;;;;;;;12.15;60.25;97479.44;4850622;29;20064;-93
2024/01/07 07:37:35;;;;;;;1.70;0.90;;;;;;;12.17;60.25;97488.00;4835690;29;20041;-92
2024/01/07 07:40:00;;;;;;;2.97;0.88;;;;;;;12.18;59.96;97500.34;4834710;29;20498;-92
2024/01/07 07:42:26;;;;;;;5.90;1.20;;;;;;;12.10;60.09;97513.56;4835044;29;20040;-92
2024/01/07 07:44:51;;;;;;;4.90;0.90;;;;;;;12.04;60.04;97508.69;4834287;29;20045;-93
2024/01/07 07:47:17;;;;;;;2.33;0.80;;;;;;;12.10;59.29;97534.38;4834454;29;20037;-92
2024/01/07 07:49:44;;;;;;;1.60;1.00;;;;;;;12.11;59.59;97541.34;4834392;29;20545;-93
2024/01/07 07:52:14;;;;;;;2.22;1.27;;;;;;;12.06;60.18;97538.81;4849837;29;20041;-92
2024/01/07 07:54:40;;;;;;;3.20;0.90;;;;;;;12.07;60.52;97549.28;4834366;29;20131;-92
2024/01/07 07:57:05;;;;;;;2.58;0.90;;;;;;;12.07;60.37;97526.91;4849060;29;20053;-93
2024/01/07 07:59:32;;;;;;;2.03;0.90;;;;;;;12.03;59.73;97528.66;4833568;29;20401;-92
2024/01/07 08:01:59;;;;;;;2.72;1.05;;;;;;;12.06;60.03;97519.94;4848713;29;20089;-92
2024/01/07 08:04:26;;;;;;;3.83;1.58;;;;;;;12.21;60.39;97556.38;4849315;29;20127;-92
2024/01/07 08:06:52;;;;;;;4.90;1.30;;;;;;;12.08;60.38;97515.81;4848944;29;20040;-95
2024/01/07 08:09:18;;;;;;;6.97;1.20;;;;;;;12.08;60.28;97523.91;4834342;29;20047;-92
2024/01/07 08:11:43;;;;;;;2.83;0.93;;;;;;;11.96;60.38;97507.59;4833059;29;20084;-92
2024/01/07 08:14:09;;;;;;;4.97;1.40;;;;;;;12.05;60.45;97531.84;4833352;29;20048;-94
2024/01/07 08:16:34;;;;;;;4.10;1.00;;;;;;;11.97;60.16;97538.84;4849596;29;20068;-94
2024/01/07 08:19:00;;;;;;;8.82;3.00;;;;;;;12.04;60.35;97535.66;4834083;29;20040;-94
2024/01/07 08:21:26;;;;;;;5.15;1.70;;;;;;;11.95;60.63;97532.19;4835200;29;20045;-94
2024/01/07 08:23:52;;;;;;;2.53;1.00;;;;;;;11.84;60.98;97512.84;4835183;29;20105;-93
2024/01/07 08:26:19;;;;;;;7.25;2.35;;;;;;;11.99;60.08;97522.34;4834096;29;20044;-94
2024/01/07 08:28:45;;;;;;;2.30;1.17;;;;;;;12.01;59.41;97526.28;4834102;29;20461;-94
2024/01/07 08:31:12;;;;;;;5.00;1.10;;;;;;;12.12;59.75;97529.44;4865591;29;20480;-92
2024/01/07 08:33:37;;;;;;;7.63;1.17;;;;;;;12.09;58.92;97513.88;4849967;29;20048;-95
2024/01/07 08:36:04;;;;;;;4.13;1.67;;;;;;;12.22;59.23;97536.38;4834874;29;20048;-92
2024/01/07 08:38:31;;;;;;;2.72;1.40;;;;;;;12.29;58.92;97526.66;4864208;29;20108;-93
2024/01/07 08:40:57;;;;;;;4.32;1.13;;;;;;;12.37;58.26;97527.75;4834699;29;20480;-93
2024/01/07 08:43:24;;;;;;;5.43;1.33;;;;;;;12.26;58.93;97527.28;4850309;29;20038;-93
2024/01/07 08:45:50;;;;;;;2.08;1.15;;;;;;;12.20;58.52;97522.41;4834362;29;20047;-95
2024/01/07 08:48:15;;;;;;;5.90;2.22;;;;;;;12.24;58.10;97523.34;4834105;29;20472;-93
2024/01/07 08:50:41;;;;;;;3.78;1.42;;;;;;;12.37;58.10;97546.63;4834131;29;20040;-93
2024/01/07 08:53:07;;;;;;;7.03;1.60;;;;;;;12.42;57.86;97568.03;4834105;29;20045;-93
2024/01/07 08:55:33;;;;;;;2.65;1.30;;;;;;;12.32;58.03;97590.75;4849013;29;20089;-94
2024/01/07 08:57:59;;;;;;;3.78;1.40;;;;;;;12.33;57.47;97567.28;4833772;29;20156;-94
2024/01/07 09:00:26;;;;;;;7.90;1.60;;;;;;;12.29;57.78;97564.44;4849587;29;20045;-93
2024/01/07 09:02:52;;;;;;;6.82;1.70;;;;;;;12.47;56.91;97575.13;4834772;29;20101;-94
2024/01/07 09:05:19;;;;;;;4.28;2.55;;;;;;;12.40;56.83;97570.25;4849656;29;20051;-92
2024/01/07 09:07:44;;;;;;;3.58;1.70;;;;;;;12.58;57.00;97589.88;4848838;29;20484;-94
2024/01/07 09:10:11;;;;;;;3.70;1.20;;;;;;;12.49;57.14;97589.09;4835237;29;20037;-93
2024/01/07 09:12:37;;;;;;;4.90;1.40;;;;;;;12.25;57.38;97568.09;4835076;29;20036;-93
2024/01/07 09:15:08;;;;;;;4.22;1.52;;;;;;;12.37;57.37;97576.31;4835700;29;20423;-92
2024/01/07 09:17:39;;;;;;;7.38;1.67;;;;;;;12.35;58.13;97565.06;4863579;29;20041;-94
2024/01/07 09:20:07;;;;;;;3.97;1.08;;;;;;;12.25;58.67;97581.59;4833634;29;20060;-94
2024/01/07 09:22:35;;;;;;;11.20;9.43;;;;;;;12.24;58.21;97559.22;4848208;29;20037;-94
2024/01/07 09:25:05;;;;;;;6.82;2.00;;;;;;;12.22;58.09;97547.97;4833737;29;20158;-94
2024/01/07 09:27:31;;;;;;;3.33;1.70;;;;;;;12.37;58.38;97576.31;4864804;29;20060;-95
2024/01/07 09:29:57;;;;;;;7.22;1.98;;;;;;;12.21;58.64;97554.47;4835267;29;20034;-93
2024/01/07 09:32:22;;;;;;;7.00;1.60;;;;;;;12.33;58.49;97548.41;4833169;29;20503;-91
2024/01/07 09:34:58;;;;;;;3.08;1.42;;;;;;;12.43;58.24;97548.03;4834429;29;20033;-92
2024/01/07 09:37:26;;;;;;;4.40;1.45;;;;;;;12.57;58.00;97538.91;4867919;29;20045;-94
2024/01/07 09:39:52;;;;;;;4.93;1.38;;;;;;;12.69;57.98;97552.47;4850091;29;20496;-96
2024/01/07 09:42:19;;;;;;;8.10;1.60;;;;;;;12.62;58.10;97539.50;4834400;29;20041;-96
2024/01/07 09:44:48;;;;;;;6.18;1.48;;;;;;;12.79;57.44;97552.09;4835061;29;20045;-96
2024/01/07 09:47:16;;;;;;;7.28;2.00;;;;;;;12.89;57.08;97551.72;4850051;29;20044;-96
2024/01/07 09:49:45;;;;;;;4.15;1.75;;;;;;;13.10;57.36;97554.44;4852628;29;20420;-94
2024/01/07 09:52:11;;;;;;;6.78;1.40;;;;;;;13.02;56.75;97552.56;4838262;29;20041;-95
2024/01/07 09:54:40;;;;;;;6.60;1.50;;;;;;;13.09;55.93;97563.66;4852330;29;20037;-95
2024/01/07 09:57:07;;;;;;;5.18;1.42;;;;;;;13.01;55.98;97555.59;4853770;29;20053;-94
2024/01/07 09:59:33;;;;;;;5.18;1.48;;;;;;;13.21;55.52;97564.84;4854086;29;20488;-96
2024/01/07 10:02:00;;;;;;;10.32;1.60;;;;;;;13.20;55.57;97553.25;4837961;29;20045;-96
2024/01/07 10:04:33;;;;;;;9.32;1.83;;;;;;;13.26;54.42;97551.13;4886259;29;20037;-94
2024/01/07 10:06:59;;;;;;;10.30;2.17;;;;;;;13.41;54.43;97566.00;4869535;29;20092;-95
2024/01/07 10:09:53;;;;;;;8.13;1.42;;;;;;;13.19;53.69;97553.56;4840851;29;20041;-94
2024/01/07 10:12:23;;;;;;;9.48;1.40;;;;;;;13.49;53.54;97576.72;4869856;29;20037;-95
2024/01/07 10:14:53;;;;;;;3.05;1.55;;;;;;;13.41;53.95;97560.59;4839472;29;20049;-92
2024/01/07 10:17:27;;;;;;;7.25;3.65;;;;;;;13.49;54.16;97571.31;4866948;29;20040;-94
2024/01/07 10:19:53;;;;;;;3.25;1.33;;;;;;;13.29;54.15;97551.28;4838717;29;20065;-95
2024/01/07 10:22:19;;;;;;;9.45;1.88;;;;;;;13.34;54.04;97542.97;4837424;29;20571;-95
2024/01/07 10:24:45;;;;;;;4.78;1.48;;;;;;;13.41;54.67;97552.47;4852814;29;20040;-93
2024/01/07 10:27:13;;;;;;;6.38;1.40;;;;;;;13.22;54.98;97559.13;4852233;29;20033;-94
2024/01/07 10:29:40;;;;;;;10.95;1.63;;;;;;;13.26;55.00;97538.41;4837868;29;20029;-93
2024/01/07 10:32:15;;;;;;;6.88;2.38;;;;;;;13.19;54.81;97535.44;4837991;29;20105;-94
2024/01/07 10:34:42;;;;;;;8.68;1.58;;;;;;;13.27;54.85;97548.09;4838163;29;20033;-93
2024/01/07 10:37:08;;;;;;;11.60;1.92;;;;;;;13.36;55.06;97539.94;4853178;29;20131;-96
2024/01/07 10:39:34;;;;;;;3.35;1.80;;;;;;;13.37;54.91;97536.13;4837169;29;20049;-91
2024/01/07 10:42:00;;;;;;;4.13;1.42;;;;;;;13.47;54.79;97543.81;4837661;29;20571;-94
2024/01/07 10:44:35;;;;;;;3.92;1.63;;;;;;;13.48;54.12;97525.69;4852388;29;20071;-93
2024/01/07 10:47:01;;;;;;;6.38;1.95;;;;;;;13.57;54.22;97545.28;4867342;29;20033;-93
2024/01/07 10:49:28;;;;;;;9.15;1.70;;;;;;;13.41;54.08;97510.00;4836864;29;20048;-95
2024/01/07 10:52:07;;;;;;;9.07;1.80;;;;;;;13.57;53.65;97534.47;4851653;29;20078;-93
2024/01/07 10:54:35;;;;;;;11.40;1.92;;;;;;;13.43;53.64;97502.34;4883463;29;20124;-94
2024/01/07 10:57:25;;;;;;;5.90;2.15;;;;;;;13.48;54.15;97499.41;4835756;29;20056;-94
2024/01/07 10:59:52;;;;;;;6.30;1.98;;;;;;;13.62;53.94;97504.53;4852490;29;20040;-95
2024/01/07 11:02:20;;;;;;;8.75;1.85;;;;;;;13.63;53.95;97498.00;4854315;29;20063;-94
2024/01/07 11:05:19;;;;;;;8.48;1.90;;;;;;;13.74;54.08;97506.50;4869517;29;20033;-96
2024/01/07 11:07:53;;;;;;;9.20;2.05;;;;;;;13.71;54.40;97491.69;4864873;29;20104;-95
2024/01/07 11:10:48;;;;;;;6.97;2.00;;;;;;;13.68;53.90;97480.78;4868310;29;20132;-95
2024/01/07 11:13:38;;;;;;;10.32;2.10;;;;;;;13.72;53.62;97468.94;4851509;29;20090;-95
2024/01/07 11:16:14;;;;;;;9.27;1.80;;;;;;;13.83;53.43;97484.75;4842808;29;20037;-95
2024/01/07 11:18:46;;;;;;;8.90;1.90;;;;;;;14.03;52.99;97483.06;4837939;29;20033;-92
2024/01/07 11:21:22;;;;;;;6.00;2.58;;;;;;;14.10;52.46;97472.47;4851831;29;20048;-93
2024/01/07 11:23:53;;;;;;;4.70;1.45;;;;;;;14.10;52.48;97465.13;4852805;29;20033;-94
2024/01/07 11:26:22;;;;;;;10.38;2.53;;;;;;;14.27;52.22;97479.56;4851811;29;20073;-96
2024/01/07 11:29:05;;;;;;;6.80;2.20;;;;;;;14.28;51.99;97471.13;4840593;29;20033;-96
2024/01/07 11:31:50;;;;;;;7.72;2.60;;;;;;;14.36;51.48;97469.44;4855400;29;20037;-96
2024/01/07 11:34:59;;;;;;;5.55;1.55;;;;;;;14.48;51.41;97492.97;4841947;29;20064;-95